createdAt,value
2023-03-18T00:00:03.668Z,9.31
2023-03-18T00:01:03.810Z,9.31
2023-03-18T00:02:03.682Z,9.31
2023-03-18T00:03:03.770Z,9.31
2023-03-18T00:04:03.716Z,9.31
2023-03-18T00:05:04.559Z,9.31
2023-03-18T00:06:03.753Z,9.31
2023-03-18T00:07:03.851Z,9.31
2023-03-18T00:08:03.911Z,9.31
2023-03-18T00:09:03.831Z,9.31
2023-03-18T00:10:03.836Z,9.31
2023-03-18T00:11:03.746Z,9.31
2023-03-18T00:12:03.924Z,9.31
2023-03-18T00:13:03.828Z,9.38
2023-03-18T00:14:03.897Z,9.31
2023-03-18T00:15:03.908Z,9.31
2023-03-18T00:16:03.915Z,9.31
2023-03-18T00:17:04.076Z,9.31
2023-03-18T00:18:03.979Z,9.31
2023-03-18T00:19:04.476Z,9.31
2023-03-18T00:20:03.504Z,9.31
2023-03-18T00:21:03.501Z,9.31
2023-03-18T00:22:04.470Z,9.31
2023-03-18T00:23:04.488Z,9.31
2023-03-18T00:24:04.466Z,9.31
2023-03-18T00:25:03.501Z,9.31
2023-03-18T00:26:03.604Z,9.31
2023-03-18T00:27:03.583Z,9.31
2023-03-18T00:28:03.523Z,9.25
2023-03-18T00:29:03.502Z,9.25
2023-03-18T00:30:03.587Z,9.25
2023-03-18T00:31:03.633Z,9.25
2023-03-18T00:32:03.515Z,9.25
2023-03-18T00:33:03.627Z,9.25
2023-03-18T00:34:03.501Z,9.25
2023-03-18T00:35:03.582Z,9.25
2023-03-18T00:36:03.626Z,9.25
2023-03-18T00:37:03.613Z,9.25
2023-03-18T00:38:03.496Z,9.25
2023-03-18T00:39:03.592Z,9.25
2023-03-18T00:40:03.584Z,9.25
2023-03-18T00:41:04.147Z,9.25
2023-03-18T00:42:04.065Z,9.25
2023-03-18T00:43:04.216Z,9.25
2023-03-18T00:44:04.141Z,9.25
2023-03-18T00:45:04.225Z,9.19
2023-03-18T00:46:04.309Z,9.19
2023-03-18T00:47:04.297Z,9.19
2023-03-18T00:48:04.398Z,9.19
2023-03-18T00:49:04.391Z,9.19
2023-03-18T00:50:04.463Z,9.19
2023-03-18T00:51:03.598Z,9.19
2023-03-18T00:52:03.502Z,9.19
2023-03-18T00:53:03.590Z,9.19
2023-03-18T00:54:03.664Z,9.19
2023-03-18T00:55:03.756Z,9.19
2023-03-18T00:56:03.751Z,9.19
2023-03-18T00:57:03.679Z,9.19
2023-03-18T00:58:03.819Z,9.12
2023-03-18T00:59:03.914Z,9.19
2023-03-18T01:00:03.832Z,9.19
2023-03-18T01:01:04.007Z,9.12
2023-03-18T01:02:04.082Z,9.12
2023-03-18T01:03:04.076Z,9.12
2023-03-18T01:04:03.995Z,9.12
2023-03-18T01:05:04.010Z,9.12
2023-03-18T01:06:03.908Z,9.12
2023-03-18T01:07:03.977Z,9.12
2023-03-18T01:08:04.150Z,9.12
2023-03-18T01:09:04.319Z,9.12
2023-03-18T01:10:04.629Z,9.12
2023-03-18T01:11:03.502Z,9.12
2023-03-18T01:12:03.588Z,9.12
2023-03-18T01:13:03.593Z,9.06
2023-03-18T01:14:03.675Z,9.06
2023-03-18T01:15:03.678Z,9.06
2023-03-18T01:16:03.713Z,9.06
2023-03-18T01:17:03.702Z,9.06
2023-03-18T01:18:03.750Z,9.06
2023-03-18T01:19:03.754Z,9.06
2023-03-18T01:20:03.826Z,9.06
2023-03-18T01:21:03.781Z,9.06
2023-03-18T01:22:03.829Z,9.06
2023-03-18T01:23:03.770Z,9.06
2023-03-18T01:24:03.906Z,9.06
2023-03-18T01:25:04.021Z,9.06
2023-03-18T01:26:04.082Z,9.06
2023-03-18T01:27:03.985Z,9.06
2023-03-18T01:28:03.905Z,9.06
2023-03-18T01:29:03.913Z,9.06
2023-03-18T01:30:03.842Z,9.00
2023-03-18T01:31:03.991Z,9.00
2023-03-18T01:32:04.212Z,9.00
2023-03-18T01:33:04.100Z,9.00
2023-03-18T01:34:04.071Z,9.00
2023-03-18T01:35:04.238Z,9.00
2023-03-18T01:36:04.205Z,8.94
2023-03-18T01:37:04.100Z,8.94
2023-03-18T01:38:04.074Z,8.94
2023-03-18T01:39:04.141Z,8.94
2023-03-18T01:40:04.062Z,8.94
2023-03-18T01:41:04.113Z,8.94
2023-03-18T01:42:03.974Z,8.94
2023-03-18T01:43:04.065Z,8.94
2023-03-18T01:44:04.169Z,8.94
2023-03-18T01:45:04.245Z,8.94
2023-03-18T01:46:04.266Z,8.94
2023-03-18T01:47:04.393Z,8.88
2023-03-18T01:48:04.387Z,8.88
2023-03-18T01:49:04.396Z,8.88
2023-03-18T01:50:03.578Z,8.88
2023-03-18T01:51:03.677Z,8.88
2023-03-18T01:52:03.583Z,8.88
2023-03-18T01:53:03.672Z,8.88
2023-03-18T01:54:03.578Z,8.88
2023-03-18T01:55:03.682Z,8.88
2023-03-18T01:56:03.691Z,8.88
2023-03-18T01:57:03.575Z,8.88
2023-03-18T01:58:03.503Z,8.88
2023-03-18T01:59:03.593Z,8.88
2023-03-18T02:00:03.579Z,8.88
2023-03-18T02:01:03.720Z,8.81
2023-03-18T02:02:03.732Z,8.81
2023-03-18T02:03:03.819Z,8.81
2023-03-18T02:04:03.967Z,8.81
2023-03-18T02:05:03.830Z,8.81
2023-03-18T02:06:03.826Z,8.81
2023-03-18T02:07:03.910Z,8.81
2023-03-18T02:08:03.826Z,8.81
2023-03-18T02:09:03.850Z,8.81
2023-03-18T02:10:03.828Z,8.81
2023-03-18T02:11:03.748Z,8.81
2023-03-18T02:12:03.673Z,8.81
2023-03-18T02:13:03.824Z,8.81
2023-03-18T02:14:03.906Z,8.81
2023-03-18T02:15:03.846Z,8.81
2023-03-18T02:16:03.760Z,8.81
2023-03-18T02:17:03.797Z,8.81
2023-03-18T02:18:03.610Z,8.75
2023-03-18T02:19:03.746Z,8.75
2023-03-18T02:20:03.830Z,8.75
2023-03-18T02:21:04.015Z,8.75
2023-03-18T02:22:03.911Z,8.75
2023-03-18T02:23:03.991Z,8.75
2023-03-18T02:24:03.910Z,8.69
2023-03-18T02:25:03.910Z,8.69
2023-03-18T02:26:03.776Z,8.75
2023-03-18T02:27:03.755Z,8.75
2023-03-18T02:28:03.752Z,8.69
2023-03-18T02:29:03.751Z,8.69
2023-03-18T02:30:03.747Z,8.69
2023-03-18T02:31:03.620Z,8.69
2023-03-18T02:32:03.593Z,8.69
2023-03-18T02:33:03.750Z,8.69
2023-03-18T02:34:03.745Z,8.69
2023-03-18T02:35:03.665Z,8.69
2023-03-18T02:36:03.713Z,8.62
2023-03-18T02:37:03.753Z,8.62
2023-03-18T02:38:03.676Z,8.62
2023-03-18T02:39:03.674Z,8.62
2023-03-18T02:40:03.671Z,8.62
2023-03-18T02:41:03.680Z,8.62
2023-03-18T02:42:03.584Z,8.56
2023-03-18T02:43:03.584Z,8.56
2023-03-18T02:44:03.621Z,8.56
2023-03-18T02:45:03.504Z,8.62
2023-03-18T02:46:03.565Z,8.62
2023-03-18T02:47:03.586Z,8.62
2023-03-18T02:48:03.586Z,8.69
2023-03-18T02:49:03.590Z,8.69
2023-03-18T02:50:03.578Z,8.69
2023-03-18T02:51:04.067Z,8.62
2023-03-18T02:52:03.981Z,8.62
2023-03-18T02:53:04.164Z,8.69
2023-03-18T02:54:04.308Z,8.69
2023-03-18T02:55:03.917Z,8.69
2023-03-18T02:56:03.833Z,8.69
2023-03-18T02:57:03.831Z,8.75
2023-03-18T02:58:03.756Z,8.75
2023-03-18T02:59:03.675Z,8.75
2023-03-18T03:00:03.579Z,8.69
2023-03-18T03:01:03.645Z,8.75
2023-03-18T03:02:03.665Z,8.75
2023-03-18T03:03:03.667Z,8.69
2023-03-18T03:04:03.749Z,8.69
2023-03-18T03:05:03.679Z,8.69
2023-03-18T03:06:03.749Z,8.69
2023-03-18T03:07:03.840Z,8.69
2023-03-18T03:08:03.907Z,8.69
2023-03-18T03:09:03.920Z,8.69
2023-03-18T03:10:03.916Z,8.69
2023-03-18T03:11:03.916Z,8.62
2023-03-18T03:12:03.846Z,8.62
2023-03-18T03:13:03.752Z,8.62
2023-03-18T03:14:03.755Z,8.62
2023-03-18T03:15:03.750Z,8.62
2023-03-18T03:16:04.214Z,8.62
2023-03-18T03:17:04.164Z,8.62
2023-03-18T03:18:04.153Z,8.62
2023-03-18T03:19:04.153Z,8.62
2023-03-18T03:20:04.314Z,8.62
2023-03-18T03:21:04.159Z,8.62
2023-03-18T03:22:04.142Z,8.62
2023-03-18T03:23:04.236Z,8.56
2023-03-18T03:24:04.387Z,8.56
2023-03-18T03:25:04.312Z,8.62
2023-03-18T03:26:04.388Z,8.62
2023-03-18T03:27:03.526Z,8.62
2023-03-18T03:28:03.600Z,8.62
2023-03-18T03:29:03.516Z,8.62
2023-03-18T03:30:03.524Z,8.56
2023-03-18T03:31:03.507Z,8.56
2023-03-18T03:32:04.465Z,8.56
2023-03-18T03:33:03.573Z,8.56
2023-03-18T03:34:04.470Z,8.56
2023-03-18T03:35:03.518Z,8.56
2023-03-18T03:36:04.401Z,8.56
2023-03-18T03:37:03.592Z,8.50
2023-03-18T03:38:03.589Z,8.50
2023-03-18T03:39:03.679Z,8.50
2023-03-18T03:40:03.754Z,8.50
2023-03-18T03:41:03.792Z,8.50
2023-03-18T03:42:03.777Z,8.44
2023-03-18T03:43:03.679Z,8.44
2023-03-18T03:44:03.756Z,8.44
2023-03-18T03:45:03.748Z,8.44
2023-03-18T03:46:03.713Z,8.44
2023-03-18T03:47:03.687Z,8.44
2023-03-18T03:48:03.747Z,8.44
2023-03-18T03:49:03.782Z,8.44
2023-03-18T03:50:03.749Z,8.44
2023-03-18T03:51:03.667Z,8.38
2023-03-18T03:52:03.619Z,8.38
2023-03-18T03:53:03.691Z,8.38
2023-03-18T03:54:03.674Z,8.38
2023-03-18T03:55:03.668Z,8.38
2023-03-18T03:56:03.582Z,8.38
2023-03-18T03:57:03.602Z,8.38
2023-03-18T03:58:03.511Z,8.38
2023-03-18T03:59:03.580Z,8.38
2023-03-18T04:00:03.428Z,8.38
2023-03-18T04:01:03.516Z,8.38
2023-03-18T04:02:03.520Z,8.38
2023-03-18T04:03:03.548Z,8.38
2023-03-18T04:04:03.594Z,8.38
2023-03-18T04:05:04.481Z,8.38
2023-03-18T04:06:04.473Z,8.38
2023-03-18T04:07:04.477Z,8.31
2023-03-18T04:08:03.605Z,8.31
2023-03-18T04:09:03.523Z,8.31
2023-03-18T04:10:03.597Z,8.31
2023-03-18T04:11:03.671Z,8.38
2023-03-18T04:12:03.761Z,8.38
2023-03-18T04:13:03.519Z,8.38
2023-03-18T04:14:04.475Z,8.38
2023-03-18T04:15:03.519Z,8.31
2023-03-18T04:16:03.621Z,8.38
2023-03-18T04:17:03.588Z,8.38
2023-03-18T04:18:03.515Z,8.38
2023-03-18T04:19:04.458Z,8.38
2023-03-18T04:20:04.465Z,8.44
2023-03-18T04:21:03.522Z,8.44
2023-03-18T04:22:03.431Z,8.44
2023-03-18T04:23:04.067Z,8.44
2023-03-18T04:24:04.155Z,8.38
2023-03-18T04:25:04.141Z,8.38
2023-03-18T04:26:04.073Z,8.38
2023-03-18T04:27:04.145Z,8.38
2023-03-18T04:28:04.150Z,8.38
2023-03-18T04:29:04.310Z,8.38
2023-03-18T04:30:04.393Z,8.38
2023-03-18T04:31:04.360Z,8.44
2023-03-18T04:32:04.465Z,8.38
2023-03-18T04:33:03.665Z,8.44
2023-03-18T04:34:03.522Z,8.44
2023-03-18T04:35:03.797Z,8.44
2023-03-18T04:36:03.711Z,8.50
2023-03-18T04:37:03.683Z,8.50
2023-03-18T04:38:03.583Z,8.56
2023-03-18T04:39:03.743Z,8.56
2023-03-18T04:40:03.743Z,8.62
2023-03-18T04:41:03.751Z,8.62
2023-03-18T04:42:03.673Z,8.62
2023-03-18T04:43:03.686Z,8.62
2023-03-18T04:44:03.836Z,8.62
2023-03-18T04:45:03.848Z,8.62
2023-03-18T04:46:03.752Z,8.62
2023-03-18T04:47:03.667Z,8.62
2023-03-18T04:48:03.821Z,8.69
2023-03-18T04:49:03.759Z,8.69
2023-03-18T04:50:03.993Z,8.75
2023-03-18T04:51:03.897Z,8.75
2023-03-18T04:52:03.905Z,8.81
2023-03-18T04:53:04.098Z,8.81
2023-03-18T04:54:04.076Z,8.81
2023-03-18T04:55:03.943Z,8.81
2023-03-18T04:56:04.075Z,8.81
2023-03-18T04:57:03.985Z,8.81
2023-03-18T04:58:04.067Z,8.88
2023-03-18T04:59:04.152Z,8.88
2023-03-18T05:00:04.139Z,8.88
2023-03-18T05:01:04.073Z,8.88
2023-03-18T05:02:04.245Z,8.94
2023-03-18T05:03:04.260Z,8.94
2023-03-18T05:04:04.311Z,8.94
2023-03-18T05:05:04.145Z,8.94
2023-03-18T05:06:04.237Z,8.94
2023-03-18T05:07:04.309Z,8.94
2023-03-18T05:08:04.397Z,9.00
2023-03-18T05:09:03.690Z,9.00
2023-03-18T05:10:03.597Z,8.94
2023-03-18T05:11:03.671Z,8.94
2023-03-18T05:12:03.747Z,8.94
2023-03-18T05:13:03.749Z,8.94
2023-03-18T05:14:03.679Z,8.94
2023-03-18T05:15:03.768Z,8.94
2023-03-18T05:16:03.790Z,8.88
2023-03-18T05:17:03.820Z,8.94
2023-03-18T05:18:03.743Z,8.94
2023-03-18T05:19:03.827Z,8.94
2023-03-18T05:20:03.740Z,8.94
2023-03-18T05:21:03.824Z,8.94
2023-03-18T05:22:03.829Z,8.94
2023-03-18T05:23:03.745Z,9.44
2023-03-18T05:24:03.688Z,9.94
2023-03-18T05:25:03.856Z,10.62
2023-03-18T05:26:03.912Z,11.00
2023-03-18T05:27:03.881Z,11.44
2023-03-18T05:28:03.748Z,11.19
2023-03-18T05:29:03.744Z,10.81
2023-03-18T05:30:03.828Z,10.50
2023-03-18T05:31:03.909Z,10.31
2023-03-18T05:32:03.870Z,10.12
2023-03-18T05:33:03.897Z,9.94
2023-03-18T05:34:03.991Z,9.81
2023-03-18T05:35:03.901Z,9.69
2023-03-18T05:36:04.027Z,9.62
2023-03-18T05:37:04.094Z,9.69
2023-03-18T05:38:04.150Z,9.62
2023-03-18T05:39:04.152Z,9.75
2023-03-18T05:40:04.239Z,9.62
2023-03-18T05:41:04.307Z,9.56
2023-03-18T05:42:04.324Z,9.50
2023-03-18T05:43:04.322Z,9.44
2023-03-18T05:44:04.226Z,9.38
2023-03-18T05:45:04.322Z,9.31
2023-03-18T05:46:04.353Z,9.25
2023-03-18T05:47:04.300Z,9.25
2023-03-18T05:48:03.518Z,9.19
2023-03-18T05:49:03.500Z,9.12
2023-03-18T05:50:03.509Z,9.12
2023-03-18T05:51:04.406Z,9.06
2023-03-18T05:52:04.386Z,9.25
2023-03-18T05:53:04.383Z,9.31
2023-03-18T05:54:03.590Z,9.38
2023-03-18T05:55:03.607Z,9.44
2023-03-18T05:56:03.512Z,9.31
2023-03-18T05:57:03.511Z,9.38
2023-03-18T05:58:03.512Z,9.38
2023-03-18T05:59:03.524Z,9.38
2023-03-18T06:00:03.589Z,9.56
2023-03-18T06:01:03.834Z,9.62
2023-03-18T06:02:03.883Z,9.75
2023-03-18T06:03:03.967Z,9.81
2023-03-18T06:04:03.832Z,9.69
2023-03-18T06:05:03.829Z,9.62
2023-03-18T06:06:03.766Z,9.56
2023-03-18T06:07:03.668Z,9.50
2023-03-18T06:08:03.722Z,9.44
2023-03-18T06:09:03.839Z,9.38
2023-03-18T06:10:08.855Z,9.38
2023-03-18T06:11:04.156Z,9.31
2023-03-18T06:12:03.754Z,9.31
2023-03-18T06:13:03.829Z,9.31
2023-03-18T06:14:03.937Z,9.31
2023-03-18T06:15:03.920Z,9.31
2023-03-18T06:16:03.923Z,9.25
2023-03-18T06:17:03.916Z,9.25
2023-03-18T06:18:03.989Z,9.38
2023-03-18T06:19:04.019Z,9.38
2023-03-18T06:20:03.860Z,9.31
2023-03-18T06:21:03.832Z,9.44
2023-03-18T06:22:03.832Z,9.62
2023-03-18T06:23:03.861Z,9.69
2023-03-18T06:24:03.855Z,9.81
2023-03-18T06:25:03.922Z,9.94
2023-03-18T06:26:03.855Z,9.88
2023-03-18T06:27:03.842Z,9.69
2023-03-18T06:28:03.920Z,9.69
2023-03-18T06:29:04.097Z,9.69
2023-03-18T06:30:04.081Z,9.69
2023-03-18T06:31:04.149Z,9.62
2023-03-18T06:32:04.239Z,9.62
2023-03-18T06:33:04.267Z,9.62
2023-03-18T06:34:04.249Z,9.56
2023-03-18T06:35:04.250Z,9.56
2023-03-18T06:36:04.339Z,9.56
2023-03-18T06:37:04.236Z,9.69
2023-03-18T06:38:04.225Z,9.69
2023-03-18T06:39:04.222Z,9.69
2023-03-18T06:40:04.400Z,9.69
2023-03-18T06:41:04.481Z,9.75
2023-03-18T06:42:03.507Z,9.75
2023-03-18T06:43:03.521Z,10.00
2023-03-18T06:44:03.668Z,10.06
2023-03-18T06:45:03.760Z,10.25
2023-03-18T06:46:03.779Z,10.25
2023-03-18T06:47:03.771Z,10.31
2023-03-18T06:48:03.825Z,10.31
2023-03-18T06:49:03.914Z,10.31
2023-03-18T06:50:03.835Z,10.31
2023-03-18T06:51:03.751Z,10.38
2023-03-18T06:52:03.762Z,10.38
2023-03-18T06:53:03.839Z,10.38
2023-03-18T06:54:05.108Z,10.44
2023-03-18T06:55:04.229Z,10.44
2023-03-18T06:56:04.225Z,10.44
2023-03-18T06:57:04.396Z,10.50
2023-03-18T06:58:03.586Z,10.50
2023-03-18T06:59:03.673Z,10.56
2023-03-18T07:00:03.795Z,10.56
2023-03-18T07:01:03.756Z,10.62
2023-03-18T07:02:03.838Z,10.62
2023-03-18T07:03:03.751Z,10.69
2023-03-18T07:04:03.820Z,10.75
2023-03-18T07:05:03.745Z,10.81
2023-03-18T07:06:03.765Z,10.88
2023-03-18T07:07:03.692Z,11.00
2023-03-18T07:08:03.686Z,11.00
2023-03-18T07:09:03.668Z,11.00
2023-03-18T07:10:03.603Z,11.12
2023-03-18T07:11:03.760Z,11.19
2023-03-18T07:12:03.772Z,11.25
2023-03-18T07:13:03.685Z,11.56
2023-03-18T07:14:03.602Z,11.50
2023-03-18T07:15:03.594Z,11.50
2023-03-18T07:16:03.561Z,11.44
2023-03-18T07:17:03.587Z,11.38
2023-03-18T07:18:03.603Z,11.31
2023-03-18T07:19:03.602Z,11.31
2023-03-18T07:20:03.582Z,11.31
2023-03-18T07:21:03.521Z,11.31
2023-03-18T07:22:03.514Z,11.31
2023-03-18T07:23:03.676Z,11.31
2023-03-18T07:24:03.671Z,11.31
2023-03-18T07:25:03.587Z,11.31
2023-03-18T07:26:03.672Z,11.31
2023-03-18T07:27:03.603Z,11.31
2023-03-18T07:28:03.644Z,11.31
2023-03-18T07:29:04.148Z,11.38
2023-03-18T07:30:04.323Z,11.56
2023-03-18T07:31:04.362Z,11.75
2023-03-18T07:32:04.308Z,11.88
2023-03-18T07:33:04.347Z,11.88
2023-03-18T07:34:04.345Z,11.88
2023-03-18T07:35:04.301Z,11.88
2023-03-18T07:36:04.338Z,11.88
2023-03-18T07:37:04.238Z,11.88
2023-03-18T07:38:04.311Z,11.81
2023-03-18T07:39:04.299Z,11.88
2023-03-18T07:40:04.307Z,11.81
2023-03-18T07:41:04.301Z,11.81
2023-03-18T07:42:04.485Z,11.88
2023-03-18T07:43:04.488Z,11.88
2023-03-18T07:44:04.324Z,11.94
2023-03-18T07:45:04.486Z,12.00
2023-03-18T07:46:03.629Z,12.31
2023-03-18T07:47:03.589Z,12.50
2023-03-18T07:48:03.829Z,12.69
2023-03-18T07:49:03.875Z,12.88
2023-03-18T07:50:03.744Z,12.75
2023-03-18T07:51:04.565Z,12.69
2023-03-18T07:52:03.707Z,12.56
2023-03-18T07:53:03.599Z,12.50
2023-03-18T07:54:04.227Z,12.44
2023-03-18T07:55:04.316Z,12.31
2023-03-18T07:56:04.422Z,12.31
2023-03-18T07:57:04.611Z,12.25
2023-03-18T07:58:04.464Z,12.25
2023-03-18T07:59:03.503Z,12.25
2023-03-18T08:00:03.501Z,12.25
2023-03-18T08:01:04.404Z,12.25
2023-03-18T08:02:04.402Z,12.25
2023-03-18T08:03:04.390Z,12.25
2023-03-18T08:04:04.514Z,12.31
2023-03-18T08:05:03.594Z,12.31
2023-03-18T08:06:03.584Z,12.31
2023-03-18T08:07:03.520Z,12.31
2023-03-18T08:08:03.514Z,12.31
2023-03-18T08:09:03.532Z,12.38
2023-03-18T08:10:03.601Z,12.56
2023-03-18T08:11:03.674Z,12.75
2023-03-18T08:12:03.519Z,12.88
2023-03-18T08:13:03.996Z,12.81
2023-03-18T08:14:04.147Z,12.81
2023-03-18T08:15:03.988Z,12.75
2023-03-18T08:16:04.288Z,12.81
2023-03-18T08:17:04.226Z,12.88
2023-03-18T08:18:04.693Z,12.88
2023-03-18T08:19:04.236Z,12.81
2023-03-18T08:20:04.310Z,12.81
2023-03-18T08:21:04.230Z,12.81
2023-03-18T08:22:04.228Z,12.81
2023-03-18T08:23:04.324Z,12.81
2023-03-18T08:24:04.384Z,12.81
2023-03-18T08:25:04.386Z,12.81
2023-03-18T08:26:04.337Z,12.81
2023-03-18T08:27:04.397Z,12.81
2023-03-18T08:28:04.384Z,12.88
2023-03-18T08:29:03.511Z,12.88
2023-03-18T08:30:04.564Z,12.88
2023-03-18T08:31:04.481Z,12.88
2023-03-18T08:32:03.542Z,12.88
2023-03-18T08:33:04.616Z,12.94
2023-03-18T08:34:04.385Z,12.94
2023-03-18T08:35:04.396Z,13.00
2023-03-18T08:36:04.402Z,13.00
2023-03-18T08:37:03.507Z,13.00
2023-03-18T08:38:03.513Z,13.06
2023-03-18T08:39:03.508Z,13.06
2023-03-18T08:40:03.602Z,13.06
2023-03-18T08:41:03.596Z,13.12
2023-03-18T08:42:03.516Z,13.19
2023-03-18T08:43:03.750Z,13.19
2023-03-18T08:44:03.584Z,13.25
2023-03-18T08:45:03.586Z,13.31
2023-03-18T08:46:03.604Z,13.31
2023-03-18T08:47:03.522Z,13.56
2023-03-18T08:48:03.520Z,13.75
2023-03-18T08:49:03.512Z,13.81
2023-03-18T08:50:03.506Z,13.81
2023-03-18T08:51:03.593Z,13.88
2023-03-18T08:52:03.670Z,13.94
2023-03-18T08:53:03.621Z,13.94
2023-03-18T08:54:04.063Z,14.00
2023-03-18T08:55:04.228Z,14.00
2023-03-18T08:56:04.158Z,14.06
2023-03-18T08:57:04.243Z,14.12
2023-03-18T08:58:04.147Z,14.19
2023-03-18T08:59:04.250Z,14.25
2023-03-18T09:00:04.232Z,14.25
2023-03-18T09:01:04.304Z,14.31
2023-03-18T09:02:04.247Z,14.38
2023-03-18T09:03:03.728Z,14.44
2023-03-18T09:04:03.524Z,14.50
2023-03-18T09:05:03.519Z,14.56
2023-03-18T09:06:03.590Z,14.62
2023-03-18T09:07:03.593Z,14.69
2023-03-18T09:08:03.686Z,14.75
2023-03-18T09:09:03.626Z,14.81
2023-03-18T09:10:03.685Z,14.88
2023-03-18T09:11:03.599Z,14.94
2023-03-18T09:12:03.510Z,15.00
2023-03-18T09:13:03.525Z,15.06
2023-03-18T09:14:03.517Z,15.12
2023-03-18T09:15:03.426Z,15.19
2023-03-18T09:16:03.594Z,15.25
2023-03-18T09:17:03.603Z,15.25
2023-03-18T09:18:11.867Z,15.38
2023-03-18T09:19:03.524Z,15.38
2023-03-18T09:20:04.597Z,15.44
2023-03-18T09:21:04.386Z,15.50
2023-03-18T09:22:03.602Z,15.56
2023-03-18T09:23:03.592Z,15.56
2023-03-18T09:24:04.990Z,15.62
2023-03-18T09:25:03.765Z,15.69
2023-03-18T09:26:03.747Z,15.75
2023-03-18T09:27:03.770Z,15.75
2023-03-18T09:28:03.677Z,15.81
2023-03-18T09:29:03.761Z,15.88
2023-03-18T09:30:03.776Z,15.94
2023-03-18T09:31:03.738Z,16.00
2023-03-18T09:32:03.665Z,16.06
2023-03-18T09:33:03.752Z,16.12
2023-03-18T09:34:03.668Z,16.12
2023-03-18T09:35:03.676Z,16.19
2023-03-18T09:36:03.598Z,16.25
2023-03-18T09:37:03.708Z,16.25
2023-03-18T09:38:03.677Z,16.31
2023-03-18T09:39:03.691Z,16.38
2023-03-18T09:40:03.754Z,16.44
2023-03-18T09:41:03.854Z,16.44
2023-03-18T09:42:03.848Z,16.50
2023-03-18T09:43:03.765Z,16.56
2023-03-18T09:44:03.663Z,16.56
2023-03-18T09:45:03.772Z,16.62
2023-03-18T09:46:03.848Z,16.62
2023-03-18T09:47:03.912Z,16.69
2023-03-18T09:48:03.681Z,16.69
2023-03-18T09:49:03.670Z,16.75
2023-03-18T09:50:03.675Z,16.81
2023-03-18T09:51:03.589Z,16.81
2023-03-18T09:52:03.672Z,16.88
2023-03-18T09:53:03.595Z,16.94
2023-03-18T09:54:03.506Z,17.00
2023-03-18T09:55:03.519Z,17.00
2023-03-18T09:56:03.594Z,17.06
2023-03-18T09:57:03.746Z,17.12
2023-03-18T09:58:03.761Z,17.12
2023-03-18T09:59:03.671Z,17.19
2023-03-18T10:00:03.762Z,17.19
2023-03-18T10:01:03.787Z,17.19
2023-03-18T10:02:03.748Z,17.25
2023-03-18T10:03:06.210Z,17.31
2023-03-18T10:04:03.756Z,17.31
2023-03-18T10:05:04.321Z,17.38
2023-03-18T10:06:04.312Z,17.38
2023-03-18T10:07:04.306Z,17.44
2023-03-18T10:08:04.395Z,17.44
2023-03-18T10:09:03.604Z,17.50
2023-03-18T10:10:03.591Z,17.50
2023-03-18T10:11:04.472Z,17.50
2023-03-18T10:12:03.500Z,17.56
2023-03-18T10:13:03.687Z,17.56
2023-03-18T10:14:03.603Z,17.62
2023-03-18T10:15:03.751Z,17.62
2023-03-18T10:16:03.793Z,17.62
2023-03-18T10:17:03.766Z,17.62
2023-03-18T10:18:04.068Z,17.62
2023-03-18T10:19:04.068Z,17.69
2023-03-18T10:20:04.000Z,17.69
2023-03-18T10:21:04.004Z,17.69
2023-03-18T10:22:03.994Z,17.69
2023-03-18T10:23:03.989Z,17.75
2023-03-18T10:24:04.467Z,17.75
2023-03-18T10:25:04.402Z,17.81
2023-03-18T10:26:04.483Z,17.81
2023-03-18T10:27:03.500Z,17.88
2023-03-18T10:28:03.687Z,17.88
2023-03-18T10:29:03.601Z,17.94
2023-03-18T10:30:03.749Z,17.94
2023-03-18T10:31:03.797Z,18.00
2023-03-18T10:32:03.834Z,18.06
2023-03-18T10:33:03.809Z,18.06
2023-03-18T10:34:03.770Z,18.12
2023-03-18T10:35:03.598Z,18.12
2023-03-18T10:36:03.723Z,18.19
2023-03-18T10:37:03.850Z,18.19
2023-03-18T10:38:03.836Z,18.25
2023-03-18T10:39:03.852Z,18.31
2023-03-18T10:40:03.852Z,18.38
2023-03-18T10:41:03.915Z,18.44
2023-03-18T10:42:03.929Z,18.44
2023-03-18T10:43:04.804Z,18.56
2023-03-18T10:44:03.989Z,18.56
2023-03-18T10:45:03.937Z,18.62
2023-03-18T10:46:03.882Z,18.69
2023-03-18T10:47:04.064Z,18.75
2023-03-18T10:48:05.895Z,18.75
2023-03-18T10:49:03.845Z,18.81
2023-03-18T10:50:03.833Z,18.88
2023-03-18T10:51:03.922Z,18.88
2023-03-18T10:52:03.839Z,18.94
2023-03-18T10:53:03.853Z,19.00
2023-03-18T10:54:03.882Z,19.00
2023-03-18T10:55:03.916Z,19.00
2023-03-18T10:56:03.921Z,19.00
2023-03-18T10:57:03.912Z,19.00
2023-03-18T10:58:03.924Z,19.00
2023-03-18T10:59:03.995Z,19.00
2023-03-18T11:00:04.089Z,19.06
2023-03-18T11:01:04.170Z,19.00
2023-03-18T11:02:04.083Z,19.00
2023-03-18T11:03:04.289Z,19.06
2023-03-18T11:04:04.227Z,19.06
2023-03-18T11:05:04.316Z,19.06
2023-03-18T11:06:04.524Z,19.06
2023-03-18T11:07:04.390Z,19.06
2023-03-18T11:08:04.310Z,19.06
2023-03-18T11:09:04.318Z,19.06
2023-03-18T11:10:04.227Z,19.06
2023-03-18T11:11:04.230Z,19.06
2023-03-18T11:12:04.320Z,19.06
2023-03-18T11:13:04.230Z,19.12
2023-03-18T11:14:04.340Z,19.12
2023-03-18T11:15:04.420Z,19.19
2023-03-18T11:16:04.425Z,19.19
2023-03-18T11:17:04.485Z,19.19
2023-03-18T11:18:04.478Z,19.19
2023-03-18T11:19:04.388Z,19.19
2023-03-18T11:20:04.389Z,19.19
2023-03-18T11:21:04.399Z,19.25
2023-03-18T11:22:04.269Z,19.25
2023-03-18T11:23:04.309Z,19.25
2023-03-18T11:24:03.520Z,19.25
2023-03-18T11:25:04.479Z,19.25
2023-03-18T11:26:04.392Z,19.25
2023-03-18T11:27:03.429Z,19.25
2023-03-18T11:28:04.473Z,19.25
2023-03-18T11:29:04.309Z,19.31
2023-03-18T11:30:03.525Z,19.31
2023-03-18T11:31:04.415Z,19.31
2023-03-18T11:32:04.487Z,19.31
2023-03-18T11:33:04.518Z,19.31
2023-03-18T11:34:04.475Z,19.31
2023-03-18T11:35:04.479Z,19.38
2023-03-18T11:36:04.466Z,19.38
2023-03-18T11:37:04.539Z,19.38
2023-03-18T11:38:04.416Z,19.38
2023-03-18T11:39:04.480Z,19.38
2023-03-18T11:40:04.429Z,19.38
2023-03-18T11:41:04.478Z,19.44
2023-03-18T11:42:03.536Z,19.44
2023-03-18T11:43:03.518Z,19.44
2023-03-18T11:44:04.493Z,19.44
2023-03-18T11:45:04.493Z,19.44
2023-03-18T11:46:04.419Z,19.44
2023-03-18T11:47:04.531Z,19.38
2023-03-18T11:48:04.467Z,19.38
2023-03-18T11:49:04.393Z,19.38
2023-03-18T11:50:04.413Z,19.38
2023-03-18T11:51:04.467Z,19.38
2023-03-18T11:52:04.468Z,19.38
2023-03-18T11:53:04.386Z,19.38
2023-03-18T11:54:03.525Z,19.38
2023-03-18T11:55:04.467Z,19.38
2023-03-18T11:56:03.590Z,19.38
2023-03-18T11:57:03.677Z,19.38
2023-03-18T11:58:03.673Z,19.44
2023-03-18T11:59:03.686Z,19.44
2023-03-18T12:00:03.852Z,19.50
2023-03-18T12:01:03.747Z,19.50
2023-03-18T12:02:03.812Z,19.50
2023-03-18T12:03:03.755Z,19.50
2023-03-18T12:04:03.834Z,19.50
2023-03-18T12:05:03.887Z,19.50
2023-03-18T12:06:03.712Z,19.50
2023-03-18T12:07:03.680Z,19.50
2023-03-18T12:08:03.754Z,19.50
2023-03-18T12:09:03.670Z,19.50
2023-03-18T12:10:03.688Z,19.56
2023-03-18T12:11:03.595Z,19.56
2023-03-18T12:12:03.427Z,19.56
2023-03-18T12:13:04.485Z,19.56
2023-03-18T12:14:03.702Z,19.62
2023-03-18T12:15:04.561Z,19.62
2023-03-18T12:16:03.718Z,19.62
2023-03-18T12:17:03.790Z,19.62
2023-03-18T12:18:03.607Z,19.69
2023-03-18T12:19:03.828Z,19.69
2023-03-18T12:20:03.746Z,19.75
2023-03-18T12:21:03.672Z,19.75
2023-03-18T12:22:03.749Z,19.75
2023-03-18T12:23:03.581Z,19.81
2023-03-18T12:24:03.596Z,19.81
2023-03-18T12:25:03.665Z,19.81
2023-03-18T12:26:03.866Z,19.81
2023-03-18T12:27:03.757Z,19.88
2023-03-18T12:28:03.756Z,19.94
2023-03-18T12:29:03.683Z,19.94
2023-03-18T12:30:03.672Z,20.00
2023-03-18T12:31:03.602Z,20.00
2023-03-18T12:32:03.856Z,20.00
2023-03-18T12:33:03.723Z,20.00
2023-03-18T12:34:03.596Z,20.06
2023-03-18T12:35:03.516Z,20.06
2023-03-18T12:36:03.608Z,20.06
2023-03-18T12:37:03.676Z,20.06
2023-03-18T12:38:03.914Z,20.06
2023-03-18T12:39:03.929Z,20.06
2023-03-18T12:40:03.908Z,20.12
2023-03-18T12:41:03.994Z,20.12
2023-03-18T12:42:04.001Z,20.12
2023-03-18T12:43:03.998Z,20.19
2023-03-18T12:44:03.918Z,20.19
2023-03-18T12:45:04.083Z,20.25
2023-03-18T12:46:04.133Z,20.31
2023-03-18T12:47:04.089Z,20.31
2023-03-18T12:48:04.082Z,20.31
2023-03-18T12:49:04.257Z,20.38
2023-03-18T12:50:04.162Z,20.38
2023-03-18T12:51:04.162Z,20.44
2023-03-18T12:52:04.173Z,20.50
2023-03-18T12:53:03.991Z,20.50
2023-03-18T12:54:04.152Z,20.50
2023-03-18T12:55:04.157Z,20.56
2023-03-18T12:56:04.086Z,20.56
2023-03-18T12:57:04.091Z,20.56
2023-03-18T12:58:03.932Z,20.62
2023-03-18T12:59:03.936Z,20.62
2023-03-18T13:00:03.998Z,20.62
2023-03-18T13:01:04.158Z,20.69
2023-03-18T13:02:04.281Z,20.69
2023-03-18T13:03:06.954Z,20.75
2023-03-18T13:04:04.165Z,20.75
2023-03-18T13:05:04.140Z,20.75